Time;durP1;ratioP1;P1;durP2;ratioP2;P2;SDS_P1;SDS_P2;PMS_P1;PMS_P2;Temp;Humidity;BMP_temperature;BMP_pressure;BME280_temperature;BME280_humidity;BME280_pressure;Samples;Min_cycle;Max_cycle;Signal;HPM_P1;HPM_P2
2023/01/19 00:01:59;;;;;;;12.82;7.03;;;;;;;;;;5043337;28;20033;-44
2023/01/19 00:04:25;;;;;;;11.02;6.75;;;;;;;;;;5043501;28;20029;-44
2023/01/19 00:06:51;;;;;;;13.32;6.68;;;;;;;;;;5043497;28;20048;-45
2023/01/19 00:09:17;;;;;;;13.43;7.43;;;;;;;;;;5044030;28;20017;-44
2023/01/19 00:11:43;;;;;;;12.57;7.30;;;;;;;;;;5044321;28;20033;-45
2023/01/19 00:14:09;;;;;;;13.05;7.93;;;;;;;;;;5044015;28;20562;-44
2023/01/19 00:16:35;;;;;;;13.20;7.95;;;;;;;;;;5043428;28;20052;-44
2023/01/19 00:19:01;;;;;;;14.68;8.35;;;;;;;;;;5043587;28;20021;-45
2023/01/19 00:21:28;;;;;;;17.33;8.40;;;;;;;;;;5043433;28;20037;-46
2023/01/19 00:23:55;;;;;;;16.15;7.60;;;;;;;;;;5044549;28;20025;-46
2023/01/19 00:26:22;;;;;;;15.57;8.15;;;;;;;;;;5048202;28;20033;-45
2023/01/19 00:28:49;;;;;;;15.85;7.97;;;;;;;;;;5047533;28;20680;-44
2023/01/19 00:31:15;;;;;;;15.73;8.55;;;;;;;;;;5047100;28;20123;-44
2023/01/19 00:33:41;;;;;;;16.48;8.50;;;;;;;;;;5047176;28;20212;-44
2023/01/19 00:36:07;;;;;;;18.00;8.95;;;;;;;;;;5047493;28;20033;-45
2023/01/19 00:38:33;;;;;;;14.82;8.52;;;;;;;;;;5047655;28;20029;-44
2023/01/19 00:40:59;;;;;;;14.88;7.80;;;;;;;;;;5047680;28;20435;-44
2023/01/19 00:43:25;;;;;;;15.45;7.20;;;;;;;;;;5047581;28;20028;-45
2023/01/19 00:45:51;;;;;;;13.65;7.43;;;;;;;;;;5045796;28;20483;-43
2023/01/19 00:48:17;;;;;;;11.32;6.90;;;;;;;;;;5045742;28;20033;-44
2023/01/19 00:50:43;;;;;;;13.88;7.38;;;;;;;;;;5050496;28;20025;-44
2023/01/19 00:53:09;;;;;;;12.15;6.68;;;;;;;;;;5047542;28;20017;-44
2023/01/19 00:55:35;;;;;;;11.23;6.72;;;;;;;;;;5046765;28;20029;-43
2023/01/19 00:58:01;;;;;;;10.70;6.18;;;;;;;;;;5048052;28;20024;-45
2023/01/19 01:00:28;;;;;;;12.93;6.90;;;;;;;;;;5056461;28;20406;-43
2023/01/19 01:02:55;;;;;;;11.13;6.07;;;;;;;;;;5050711;28;20059;-42
2023/01/19 06:12:55;;;;;;;12.38;7.70;;;;;;;;;;5046163;28;20039;-43
2023/01/19 06:15:21;;;;;;;14.00;7.72;;;;;;;;;;5060702;28;20037;-43
2023/01/19 06:17:47;;;;;;;14.15;7.75;;;;;;;;;;5050266;28;20148;-44
2023/01/19 06:20:13;;;;;;;11.68;6.95;;;;;;;;;;5050400;28;20582;-43
2023/01/19 06:22:39;;;;;;;11.80;7.13;;;;;;;;;;5048839;28;20052;-43
2023/01/19 06:25:06;;;;;;;12.55;6.95;;;;;;;;;;5049341;28;20474;-44
2023/01/19 06:27:32;;;;;;;10.48;6.30;;;;;;;;;;5048567;28;20583;-44
2023/01/19 06:29:58;;;;;;;12.60;6.82;;;;;;;;;;5029939;28;20068;-44
2023/01/19 06:32:24;;;;;;;10.75;6.82;;;;;;;;;;5040741;28;20052;-43
2023/01/19 06:34:50;;;;;;;12.60;7.57;;;;;;;;;;5049615;28;20431;-44
2023/01/19 06:37:16;;;;;;;12.80;6.97;;;;;;;;;;5044080;28;20029;-43
2023/01/19 06:39:44;;;;;;;13.43;7.60;;;;;;;;;;5048868;28;20032;-45
2023/01/19 06:42:10;;;;;;;10.98;7.13;;;;;;;;;;5049385;28;20040;-44
2023/01/19 06:44:36;;;;;;;14.90;8.38;;;;;;;;;;5048783;28;20405;-43
2023/01/19 06:47:02;;;;;;;16.15;9.00;;;;;;;;;;5049713;28;20025;-44
2023/01/19 06:49:28;;;;;;;15.65;9.60;;;;;;;;;;5049759;28;20104;-43
2023/01/19 06:51:54;;;;;;;15.85;9.23;;;;;;;;;;5049660;28;20019;-44
2023/01/19 06:54:21;;;;;;;18.20;8.90;;;;;;;;;;5048134;28;20634;-44
2023/01/19 06:56:47;;;;;;;16.73;9.73;;;;;;;;;;5049525;28;20028;-44
2023/01/19 06:59:13;;;;;;;16.92;9.50;;;;;;;;;;5049058;28;20064;-44
2023/01/19 07:01:39;;;;;;;16.65;8.45;;;;;;;;;;5048064;28;20492;-44
2023/01/19 07:04:05;;;;;;;12.25;7.72;;;;;;;;;;5048242;28;20039;-44
2023/01/19 07:06:31;;;;;;;13.93;7.63;;;;;;;;;;5050405;28;20116;-44
2023/01/19 07:08:59;;;;;;;13.45;7.68;;;;;;;;;;5049106;28;20128;-44
2023/01/19 07:11:25;;;;;;;12.32;7.00;;;;;;;;;;5049128;28;20045;-44
2023/01/19 07:13:53;;;;;;;12.80;7.15;;;;;;;;;;5048936;28;20029;-44
2023/01/19 07:16:19;;;;;;;13.10;7.72;;;;;;;;;;5048044;28;20468;-44
2023/01/19 07:18:47;;;;;;;13.65;7.43;;;;;;;;;;5047285;28;20100;-44
2023/01/19 07:21:14;;;;;;;13.52;7.97;;;;;;;;;;5050098;28;20021;-44
2023/01/19 07:23:40;;;;;;;13.10;7.65;;;;;;;;;;5057817;28;20108;-43
2023/01/19 07:26:06;;;;;;;13.27;7.70;;;;;;;;;;5048990;28;20096;-45
2023/01/19 07:28:32;;;;;;;14.90;7.72;;;;;;;;;;5048042;28;20539;-45
2023/01/19 07:30:58;;;;;;;14.07;7.47;;;;;;;;;;5048522;28;20071;-44
2023/01/19 07:33:25;;;;;;;13.68;8.43;;;;;;;;;;5052142;28;20048;-45
2023/01/19 07:35:51;;;;;;;14.15;7.70;;;;;;;;;;5039762;28;20024;-44
2023/01/19 07:38:18;;;;;;;16.42;9.02;;;;;;;;;;5049469;28;20058;-43
2023/01/19 07:40:45;;;;;;;14.13;7.68;;;;;;;;;;5047801;28;20029;-45
2023/01/19 07:43:12;;;;;;;15.00;8.05;;;;;;;;;;5049835;28;20035;-43
2023/01/19 07:45:38;;;;;;;13.68;7.07;;;;;;;;;;5049441;28;20044;-44
2023/01/19 07:48:04;;;;;;;12.57;7.90;;;;;;;;;;5048259;28;20399;-44
2023/01/19 07:50:30;;;;;;;13.32;7.18;;;;;;;;;;5047204;28;20021;-45
2023/01/19 07:52:56;;;;;;;13.60;7.70;;;;;;;;;;5048239;28;20091;-46
2023/01/19 07:55:23;;;;;;;11.98;6.63;;;;;;;;;;5047425;28;20021;-44
2023/01/19 07:57:50;;;;;;;14.95;7.68;;;;;;;;;;5048121;28;20032;-45
2023/01/19 08:00:19;;;;;;;15.52;8.00;;;;;;;;;;5047980;28;20061;-44
2023/01/19 08:02:48;;;;;;;13.80;7.15;;;;;;;;;;5048198;28;20029;-44
2023/01/19 08:05:14;;;;;;;9.15;6.43;;;;;;;;;;5048456;28;20579;-44
2023/01/19 08:07:40;;;;;;;10.35;6.57;;;;;;;;;;5037646;28;20034;-44
2023/01/19 08:10:06;;;;;;;9.98;6.13;;;;;;;;;;5036603;28;20162;-44
2023/01/19 08:12:33;;;;;;;9.90;5.70;;;;;;;;;;5046437;28;20089;-42
2023/01/19 08:14:59;;;;;;;10.43;6.03;;;;;;;;;;5049138;28;20029;-43
2023/01/19 08:17:25;;;;;;;12.85;7.03;;;;;;;;;;5047476;28;20036;-46
2023/01/19 08:19:51;;;;;;;11.70;6.90;;;;;;;;;;5049049;28;20056;-44
2023/01/19 08:22:17;;;;;;;11.05;6.38;;;;;;;;;;5038119;28;20112;-45
2023/01/19 08:24:43;;;;;;;10.25;6.07;;;;;;;;;;5062674;28;20539;-43
2023/01/19 08:27:09;;;;;;;9.77;6.32;;;;;;;;;;5067683;28;20028;-44
2023/01/19 08:29:35;;;;;;;14.32;7.22;;;;;;;;;;5046789;28;20044;-43
2023/01/19 08:32:01;;;;;;;15.68;7.97;;;;;;;;;;5047806;28;20033;-43
2023/01/19 08:34:29;;;;;;;16.20;8.07;;;;;;;;;;5048015;28;20446;-43
2023/01/19 08:36:56;;;;;;;15.77;8.02;;;;;;;;;;5047503;28;20021;-43
2023/01/19 08:39:23;;;;;;;13.70;7.28;;;;;;;;;;5048699;28;20052;-43
2023/01/19 08:41:49;;;;;;;11.38;6.00;;;;;;;;;;5068075;28;20104;-43
2023/01/19 08:44:16;;;;;;;9.70;5.82;;;;;;;;;;5053206;28;20029;-43
2023/01/19 08:46:43;;;;;;;9.35;5.20;;;;;;;;;;5055496;28;20029;-42
2023/01/19 08:49:10;;;;;;;8.65;4.93;;;;;;;;;;5054844;28;20029;-43
2023/01/19 08:51:37;;;;;;;8.43;4.95;;;;;;;;;;5066674;28;20407;-43
2023/01/19 08:54:03;;;;;;;8.30;4.53;;;;;;;;;;5063826;28;20143;-43
2023/01/19 08:56:29;;;;;;;7.88;5.05;;;;;;;;;;5071634;28;20063;-43
2023/01/19 08:58:55;;;;;;;6.72;4.45;;;;;;;;;;5063180;28;20025;-43
2023/01/19 09:01:22;;;;;;;8.63;4.82;;;;;;;;;;5050870;28;20052;-42
2023/01/19 09:03:48;;;;;;;7.63;5.13;;;;;;;;;;5051305;28;20116;-43
2023/01/19 09:06:18;;;;;;;8.85;5.25;;;;;;;;;;5051445;28;20492;-43
2023/01/19 09:08:46;;;;;;;8.15;5.35;;;;;;;;;;5051698;28;20416;-43
2023/01/19 09:11:14;;;;;;;8.98;5.65;;;;;;;;;;5063916;28;20078;-42
2023/01/19 09:13:40;;;;;;;8.82;5.68;;;;;;;;;;5071160;28;20709;-42
2023/01/19 09:16:07;;;;;;;9.15;5.13;;;;;;;;;;5071114;28;20025;-42
2023/01/19 09:18:34;;;;;;;8.65;5.40;;;;;;;;;;5071115;28;20029;-42
2023/01/19 09:21:02;;;;;;;6.60;4.60;;;;;;;;;;5051513;28;20033;-43
2023/01/19 09:23:28;;;;;;;8.07;5.22;;;;;;;;;;5050630;28;20559;-42
2023/01/19 09:25:58;;;;;;;9.27;5.30;;;;;;;;;;5050782;28;20081;-42
2023/01/19 09:28:25;;;;;;;6.85;4.72;;;;;;;;;;5048476;28;20061;-42
2023/01/19 09:30:51;;;;;;;7.72;4.57;;;;;;;;;;5046306;28;20119;-43
2023/01/19 09:33:18;;;;;;;8.10;4.82;;;;;;;;;;5050495;28;20466;-42
2023/01/19 09:35:45;;;;;;;7.72;5.28;;;;;;;;;;5047833;28;20115;-42
2023/01/19 09:38:12;;;;;;;8.52;5.35;;;;;;;;;;5048281;28;20032;-42
2023/01/19 09:40:47;;;;;;;9.35;5.72;;;;;;;;;;5049371;28;20086;-42
2023/01/19 09:43:28;;;;;;;9.52;5.72;;;;;;;;;;5048657;28;20032;-42
2023/01/19 09:45:55;;;;;;;10.02;5.40;;;;;;;;;;5058473;28;20506;-42
2023/01/19 09:48:27;;;;;;;7.40;4.85;;;;;;;;;;5058508;28;20040;-42
2023/01/19 09:50:54;;;;;;;7.72;5.22;;;;;;;;;;5062009;28;20128;-42
2023/01/19 09:53:28;;;;;;;10.88;6.25;;;;;;;;;;5051223;28;20116;-42
2023/01/19 09:55:54;;;;;;;9.70;5.93;;;;;;;;;;5050131;28;20025;-42
2023/01/19 09:58:20;;;;;;;7.55;5.25;;;;;;;;;;5050442;28;20547;-42
2023/01/19 10:00:50;;;;;;;7.93;5.03;;;;;;;;;;5050182;28;20028;-43
2023/01/19 10:03:16;;;;;;;8.18;4.35;;;;;;;;;;5050152;28;20029;-42
2023/01/19 10:05:52;;;;;;;8.75;4.80;;;;;;;;;;5051578;28;20032;-42
2023/01/19 10:08:41;;;;;;;7.72;4.53;;;;;;;;;;5048608;28;20031;-42
2023/01/19 10:11:25;;;;;;;6.97;4.63;;;;;;;;;;5049579;28;20025;-42
2023/01/19 10:13:53;;;;;;;;;;;;;;;;;;5052089;28;20028;-42
2023/01/19 10:16:22;;;;;;;6.85;4.60;;;;;;;;;;5069970;28;20429;-42
2023/01/19 10:18:50;;;;;;;9.75;6.10;;;;;;;;;;5062991;28;20027;-42
2023/01/19 10:21:24;;;;;;;9.63;5.30;;;;;;;;;;5049593;28;20060;-42
2023/01/19 10:23:55;;;;;;;7.85;4.95;;;;;;;;;;5045111;28;20111;-42
2023/01/19 10:26:23;;;;;;;7.82;4.95;;;;;;;;;;5049321;28;20025;-42
2023/01/19 10:28:52;;;;;;;8.27;5.18;;;;;;;;;;5040054;28;20029;-42
2023/01/19 10:31:20;;;;;;;8.48;5.03;;;;;;;;;;5050146;28;20399;-42
2023/01/19 10:33:49;;;;;;;8.32;4.72;;;;;;;;;;5049341;28;20463;-42
2023/01/19 10:36:16;;;;;;;7.28;4.20;;;;;;;;;;5051124;28;20029;-42
2023/01/19 10:38:43;;;;;;;7.82;4.20;;;;;;;;;;5050735;28;20020;-42
2023/01/19 10:41:32;;;;;;;7.13;3.83;;;;;;;;;;5050475;28;20025;-42
2023/01/19 10:43:59;;;;;;;8.82;4.75;;;;;;;;;;5037519;28;20051;-42
2023/01/19 10:46:29;;;;;;;6.75;4.13;;;;;;;;;;5050200;28;20071;-42
2023/01/19 10:48:55;;;;;;;7.50;4.40;;;;;;;;;;5050349;28;20041;-42
2023/01/19 10:51:22;;;;;;;7.97;4.93;;;;;;;;;;5048699;28;20492;-42
2023/01/19 10:54:04;;;;;;;6.85;4.70;;;;;;;;;;5049943;28;20071;-42
2023/01/19 10:56:36;;;;;;;8.63;4.70;;;;;;;;;;5030414;28;20104;-42
2023/01/19 10:59:04;;;;;;;7.70;4.50;;;;;;;;;;5047875;28;20400;-43
2023/01/19 11:01:34;;;;;;;6.15;4.07;;;;;;;;;;5049740;28;20048;-42
2023/01/19 11:04:04;;;;;;;6.40;4.40;;;;;;;;;;5050396;28;20039;-42
2023/01/19 11:06:30;;;;;;;7.57;4.38;;;;;;;;;;5050270;28;20048;-41
2023/01/19 11:09:10;;;;;;;6.85;4.50;;;;;;;;;;5051564;28;20029;-41
2023/01/19 11:11:57;;;;;;;6.78;4.22;;;;;;;;;;5042229;28;20051;-42
2023/01/19 11:14:24;;;;;;;5.35;3.65;;;;;;;;;;5035527;28;20095;-42
2023/01/19 11:16:54;;;;;;;5.70;3.60;;;;;;;;;;5026839;28;20044;-42
2023/01/19 11:19:31;;;;;;;5.18;3.35;;;;;;;;;;5029008;28;20033;-42
2023/01/19 11:22:09;;;;;;;5.40;2.97;;;;;;;;;;5028285;28;20030;-42
2023/01/19 11:24:36;;;;;;;6.07;3.25;;;;;;;;;;5027760;28;20040;-42
2023/01/19 11:27:03;;;;;;;6.05;3.17;;;;;;;;;;5031727;28;20599;-42
2023/01/19 11:29:29;;;;;;;5.80;3.75;;;;;;;;;;5016107;28;20053;-41
2023/01/19 11:32:08;;;;;;;7.30;4.10;;;;;;;;;;5029772;28;20030;-42
2023/01/19 11:34:36;;;;;;;7.72;4.70;;;;;;;;;;5029771;28;20039;-41
2023/01/19 11:37:04;;;;;;;9.43;4.80;;;;;;;;;;5028837;28;20025;-42
2023/01/19 11:39:32;;;;;;;6.88;4.55;;;;;;;;;;5035261;28;20037;-41
2023/01/19 11:41:59;;;;;;;10.85;6.20;;;;;;;;;;5042296;28;20045;-42
2023/01/19 11:44:33;;;;;;;9.70;5.53;;;;;;;;;;5029265;28;20104;-42
2023/01/19 11:47:00;;;;;;;9.70;6.28;;;;;;;;;;5030612;28;20392;-41
2023/01/19 11:49:44;;;;;;;9.35;5.80;;;;;;;;;;5029702;28;20068;-42
2023/01/19 11:52:19;;;;;;;10.15;5.55;;;;;;;;;;5026591;28;20033;-42
2023/01/19 11:54:49;;;;;;;9.23;5.30;;;;;;;;;;5027373;28;20044;-42
2023/01/19 11:57:16;;;;;;;9.00;4.85;;;;;;;;;;5039540;28;20050;-42
2023/01/19 11:59:43;;;;;;;10.55;6.00;;;;;;;;;;5029386;28;20029;-42
2023/01/19 12:02:29;;;;;;;13.02;5.60;;;;;;;;;;5011950;28;20030;-42
2023/01/19 12:04:57;;;;;;;7.45;4.45;;;;;;;;;;5018072;28;20045;-42
2023/01/19 12:07:28;;;;;;;9.30;4.30;;;;;;;;;;5021463;28;20033;-43
2023/01/19 12:09:56;;;;;;;6.18;3.08;;;;;;;;;;5021124;28;20025;-43
2023/01/19 12:12:28;;;;;;;5.63;2.67;;;;;;;;;;5026148;28;20112;-43
2023/01/19 12:14:56;;;;;;;5.38;2.80;;;;;;;;;;5037178;28;20041;-42
2023/01/19 12:17:27;;;;;;;5.32;2.83;;;;;;;;;;5046155;28;20032;-43
2023/01/19 12:19:55;;;;;;;4.70;2.55;;;;;;;;;;5050332;28;20083;-43
2023/01/19 12:22:22;;;;;;;5.32;2.63;;;;;;;;;;5045583;28;20168;-43
2023/01/19 12:25:11;;;;;;;4.68;2.83;;;;;;;;;;5051217;28;20036;-44
2023/01/19 12:27:42;;;;;;;3.90;2.20;;;;;;;;;;5050643;28;20025;-43
2023/01/19 12:30:22;;;;;;;3.63;2.15;;;;;;;;;;5049157;28;20471;-43
2023/01/19 12:32:50;;;;;;;3.63;2.40;;;;;;;;;;5047999;28;20025;-42
2023/01/19 12:35:35;;;;;;;2.95;2.10;;;;;;;;;;5050405;28;20103;-42
2023/01/19 12:38:01;;;;;;;2.42;2.17;;;;;;;;;;5048932;28;20044;-42
2023/01/19 12:40:29;;;;;;;2.17;1.85;;;;;;;;;;5050280;28;20142;-44
2023/01/19 12:42:55;;;;;;;3.88;2.15;;;;;;;;;;5049911;28;20025;-42
2023/01/19 12:45:24;;;;;;;2.20;1.77;;;;;;;;;;5048311;28;20120;-43
2023/01/19 12:47:51;;;;;;;4.88;2.28;;;;;;;;;;5049109;28;20033;-42
2023/01/19 12:50:19;;;;;;;2.83;1.88;;;;;;;;;;5048768;28;20025;-42
2023/01/19 12:53:00;;;;;;;2.72;1.67;;;;;;;;;;5052000;28;20044;-42
2023/01/19 12:55:30;;;;;;;2.30;1.70;;;;;;;;;;5047025;28;20052;-42
2023/01/19 12:58:06;;;;;;;2.45;1.90;;;;;;;;;;5048908;28;20423;-41
2023/01/19 13:00:35;;;;;;;3.10;1.70;;;;;;;;;;5047314;28;20400;-42
2023/01/19 13:03:03;;;;;;;3.15;1.75;;;;;;;;;;5047712;28;20029;-43
2023/01/19 13:05:32;;;;;;;2.47;1.65;;;;;;;;;;5047478;28;20070;-42
2023/01/19 13:08:18;;;;;;;3.10;1.65;;;;;;;;;;5047585;28;20102;-43
2023/01/19 13:10:53;;;;;;;1.88;1.38;;;;;;;;;;5048885;28;20043;-43
2023/01/19 13:13:19;;;;;;;1.95;1.52;;;;;;;;;;5049626;28;20476;-42
2023/01/19 13:15:45;;;;;;;1.35;1.13;;;;;;;;;;5048766;28;20115;-42
2023/01/19 13:18:25;;;;;;;3.13;1.75;;;;;;;;;;5049717;28;20033;-43
2023/01/19 13:20:54;;;;;;;3.53;1.85;;;;;;;;;;5047419;28;20037;-42
2023/01/19 13:23:23;;;;;;;4.47;2.30;;;;;;;;;;5049871;28;20029;-43
2023/01/19 13:25:51;;;;;;;3.33;1.98;;;;;;;;;;5044860;28;20430;-44
2023/01/19 13:28:18;;;;;;;2.83;1.58;;;;;;;;;;5047687;28;20025;-43
2023/01/19 13:30:50;;;;;;;3.58;1.92;;;;;;;;;;5045743;28;20082;-43
2023/01/19 13:33:19;;;;;;;2.65;1.52;;;;;;;;;;5047909;28;20036;-44
2023/01/19 13:35:52;;;;;;;2.00;1.40;;;;;;;;;;5049389;28;20028;-44
2023/01/19 13:38:18;;;;;;;3.35;1.88;;;;;;;;;;5033748;28;20090;-43
2023/01/19 13:40:46;;;;;;;3.58;1.92;;;;;;;;;;5046608;28;20646;-43
2023/01/19 13:43:15;;;;;;;3.08;1.50;;;;;;;;;;5049489;28;20027;-44
2023/01/19 13:45:45;;;;;;;3.38;1.60;;;;;;;;;;5046499;28;20467;-43
2023/01/19 13:48:15;;;;;;;3.20;1.73;;;;;;;;;;5049477;28;20040;-43
2023/01/19 13:50:43;;;;;;;1.75;1.42;;;;;;;;;;5049223;28;20108;-42
2023/01/19 13:53:19;;;;;;;3.30;1.60;;;;;;;;;;5055973;28;20032;-45
2023/01/19 13:55:46;;;;;;;2.40;1.90;;;;;;;;;;5050754;28;20021;-45
2023/01/19 13:58:25;;;;;;;2.72;2.00;;;;;;;;;;5047987;28;20024;-44
2023/01/19 14:00:51;;;;;;;4.70;2.72;;;;;;;;;;5049741;28;20751;-42
2023/01/19 14:03:22;;;;;;;4.90;2.70;;;;;;;;;;5049379;28;20029;-44
2023/01/19 14:05:51;;;;;;;5.43;2.90;;;;;;;;;;5048480;28;20041;-45
2023/01/19 14:08:19;;;;;;;5.88;3.30;;;;;;;;;;5046052;28;20555;-43
2023/01/19 14:10:55;;;;;;;5.63;3.60;;;;;;;;;;5047861;28;20029;-44
2023/01/19 14:13:25;;;;;;;4.35;3.00;;;;;;;;;;5047504;28;20025;-44
2023/01/19 14:15:52;;;;;;;4.47;2.90;;;;;;;;;;5049431;28;20052;-43
2023/01/19 14:18:21;;;;;;;4.78;2.88;;;;;;;;;;5048793;28;20027;-42
2023/01/19 14:21:13;;;;;;;5.43;3.45;;;;;;;;;;5049680;28;20025;-44
2023/01/19 14:23:42;;;;;;;5.07;3.58;;;;;;;;;;5046615;28;20388;-45
2023/01/19 14:26:27;;;;;;;4.88;3.10;;;;;;;;;;5048833;28;20029;-42
2023/01/19 14:28:53;;;;;;;4.38;3.17;;;;;;;;;;5042183;28;20436;-44
2023/01/19 14:31:21;;;;;;;4.65;3.05;;;;;;;;;;5047844;28;20531;-47
2023/01/19 14:33:48;;;;;;;4.22;2.80;;;;;;;;;;5049150;28;20500;-45
2023/01/19 14:36:23;;;;;;;5.75;3.30;;;;;;;;;;5048907;28;20044;-44
2023/01/19 14:38:50;;;;;;;6.55;3.60;;;;;;;;;;5029430;28;20033;-45
2023/01/19 14:41:25;;;;;;;5.38;3.20;;;;;;;;;;5036077;28;20036;-44
2023/01/19 14:43:53;;;;;;;8.23;4.22;;;;;;;;;;5044758;28;20104;-45
2023/01/19 14:46:20;;;;;;;7.45;4.55;;;;;;;;;;5046667;28;20025;-43
2023/01/19 14:48:49;;;;;;;5.28;3.55;;;;;;;;;;5051517;28;20116;-44
2023/01/19 14:51:17;;;;;;;5.95;3.53;;;;;;;;;;5043144;28;20402;-45
2023/01/19 14:53:54;;;;;;;4.25;3.10;;;;;;;;;;5045728;28;20475;-42
2023/01/19 14:56:25;;;;;;;4.20;2.88;;;;;;;;;;5045940;28;20044;-45
2023/01/19 14:58:51;;;;;;;4.68;3.05;;;;;;;;;;5044969;28;20098;-44
2023/01/19 15:01:17;;;;;;;4.55;3.00;;;;;;;;;;5045776;28;20495;-45
2023/01/19 15:03:43;;;;;;;4.97;3.08;;;;;;;;;;5045969;28;20032;-45
2023/01/19 15:06:19;;;;;;;3.38;2.53;;;;;;;;;;5046929;28;20032;-44
2023/01/19 15:08:47;;;;;;;4.07;2.95;;;;;;;;;;5046790;28;20047;-43
2023/01/19 15:11:20;;;;;;;6.57;3.58;;;;;;;;;;5047312;28;20013;-46
2023/01/19 15:13:47;;;;;;;4.68;3.17;;;;;;;;;;5046681;28;20028;-45
2023/01/19 15:16:13;;;;;;;4.72;3.13;;;;;;;;;;5047385;28;20028;-45
2023/01/19 15:18:40;;;;;;;5.72;3.38;;;;;;;;;;5046741;28;20029;-46
2023/01/19 15:21:09;;;;;;;5.75;2.88;;;;;;;;;;5042653;28;20025;-45
2023/01/19 15:23:35;;;;;;;4.30;2.80;;;;;;;;;;5048414;28;20056;-46
2023/01/19 15:26:02;;;;;;;3.42;2.40;;;;;;;;;;5036714;28;20384;-44
2023/01/19 15:28:29;;;;;;;4.28;3.03;;;;;;;;;;5048185;28;20041;-44
2023/01/19 15:30:56;;;;;;;4.30;2.92;;;;;;;;;;5048344;28;20017;-44
2023/01/19 15:33:26;;;;;;;4.68;3.35;;;;;;;;;;5046244;28;20119;-44
2023/01/19 15:35:53;;;;;;;4.70;3.10;;;;;;;;;;5048179;28;20040;-45
2023/01/19 15:38:19;;;;;;;4.95;3.45;;;;;;;;;;5047370;28;20032;-43
2023/01/19 15:40:46;;;;;;;6.25;3.42;;;;;;;;;;5047900;28;20043;-44
2023/01/19 15:43:12;;;;;;;7.60;4.57;;;;;;;;;;5047557;28;20040;-44
2023/01/19 15:46:01;;;;;;;6.47;4.22;;;;;;;;;;5047442;28;20108;-44
2023/01/19 15:48:27;;;;;;;7.07;4.65;;;;;;;;;;5044087;28;20047;-44
2023/01/19 15:50:53;;;;;;;6.05;4.43;;;;;;;;;;5046366;28;20021;-44
2023/01/19 15:53:20;;;;;;;6.30;4.47;;;;;;;;;;5046176;28;20377;-44
2023/01/19 15:55:50;;;;;;;7.10;4.75;;;;;;;;;;5045412;28;20032;-45
2023/01/19 15:58:17;;;;;;;6.57;4.40;;;;;;;;;;5044809;28;20033;-45
2023/01/19 16:00:43;;;;;;;5.28;3.75;;;;;;;;;;5042804;28;20036;-43
2023/01/19 16:03:09;;;;;;;5.10;3.97;;;;;;;;;;5043452;28;20417;-45
2023/01/19 16:05:36;;;;;;;5.93;3.88;;;;;;;;;;5043959;28;20047;-44
2023/01/19 16:08:02;;;;;;;6.70;4.53;;;;;;;;;;5045439;28;20036;-45
2023/01/19 16:10:28;;;;;;;7.03;4.32;;;;;;;;;;5045317;28;20376;-44
2023/01/19 16:12:54;;;;;;;7.28;4.43;;;;;;;;;;5045138;28;20106;-44
2023/01/19 16:15:22;;;;;;;8.00;4.57;;;;;;;;;;5045260;28;20039;-46
2023/01/19 16:17:48;;;;;;;6.50;3.88;;;;;;;;;;5044239;28;20033;-45
2023/01/19 16:20:14;;;;;;;5.25;3.78;;;;;;;;;;5041882;28;20448;-45
2023/01/19 16:22:40;;;;;;;5.93;3.55;;;;;;;;;;5044210;28;20079;-46
2023/01/19 16:25:06;;;;;;;6.55;3.88;;;;;;;;;;5043838;28;20025;-45
2023/01/19 16:27:32;;;;;;;6.72;4.07;;;;;;;;;;5043567;28;20516;-44
2023/01/19 16:30:03;;;;;;;6.97;4.05;;;;;;;;;;5043047;28;20014;-45
2023/01/19 16:32:30;;;;;;;5.88;4.20;;;;;;;;;;5043063;28;20024;-45
2023/01/19 16:34:56;;;;;;;6.93;4.72;;;;;;;;;;5045035;28;20040;-45
2023/01/19 16:37:22;;;;;;;7.15;4.00;;;;;;;;;;5044558;28;20025;-46
2023/01/19 16:39:50;;;;;;;8.48;4.85;;;;;;;;;;5045852;28;20029;-44
2023/01/19 16:42:16;;;;;;;6.70;4.55;;;;;;;;;;5043067;28;20446;-44
2023/01/19 16:44:42;;;;;;;8.25;4.90;;;;;;;;;;5044300;28;20124;-45
2023/01/19 16:47:08;;;;;;;6.78;4.10;;;;;;;;;;5026981;28;20041;-44
2023/01/19 16:49:34;;;;;;;7.22;4.53;;;;;;;;;;5045086;28;20013;-45
2023/01/19 16:52:01;;;;;;;8.85;4.80;;;;;;;;;;5045171;28;20028;-45
2023/01/19 16:54:28;;;;;;;7.40;4.18;;;;;;;;;;5045484;28;20021;-44
2023/01/19 16:56:55;;;;;;;8.45;4.53;;;;;;;;;;5046273;28;20029;-43
2023/01/19 16:59:22;;;;;;;8.05;4.72;;;;;;;;;;5045563;28;20400;-44
2023/01/19 17:01:51;;;;;;;10.07;5.10;;;;;;;;;;5045990;28;20060;-46
2023/01/19 17:04:18;;;;;;;9.45;5.38;;;;;;;;;;5046770;28;20021;-44
2023/01/19 17:06:45;;;;;;;10.52;6.03;;;;;;;;;;5047738;28;20025;-43
2023/01/19 17:09:11;;;;;;;11.15;6.30;;;;;;;;;;5049397;28;20734;-44
2023/01/19 17:11:41;;;;;;;12.98;7.45;;;;;;;;;;5045906;28;20562;-44
2023/01/19 17:14:10;;;;;;;11.25;6.28;;;;;;;;;;5038331;28;20088;-44
2023/01/19 17:16:36;;;;;;;11.35;6.38;;;;;;;;;;5030033;28;20033;-44
2023/01/19 17:19:03;;;;;;;12.02;7.10;;;;;;;;;;5029116;28;20492;-44
2023/01/19 17:21:29;;;;;;;12.80;7.18;;;;;;;;;;5030050;28;20025;-45
2023/01/19 17:23:56;;;;;;;13.27;7.43;;;;;;;;;;5029278;28;20496;-43
2023/01/19 17:26:24;;;;;;;11.43;6.72;;;;;;;;;;5028575;28;20790;-42
2023/01/19 17:28:50;;;;;;;9.65;5.78;;;;;;;;;;5029023;28;20071;-44
2023/01/19 17:31:18;;;;;;;11.15;6.82;;;;;;;;;;5029120;28;20036;-44
2023/01/19 17:33:46;;;;;;;13.25;7.93;;;;;;;;;;5028197;28;20396;-44
2023/01/19 17:36:13;;;;;;;16.63;9.82;;;;;;;;;;5028294;28;20108;-44
2023/01/19 17:38:40;;;;;;;18.08;10.10;;;;;;;;;;5027885;28;20047;-44
2023/01/19 17:41:16;;;;;;;16.25;9.85;;;;;;;;;;5018563;28;20067;-43
2023/01/19 17:43:43;;;;;;;15.88;8.98;;;;;;;;;;5028405;28;20071;-44
2023/01/19 17:46:09;;;;;;;14.05;8.45;;;;;;;;;;5028694;28;20025;-44
2023/01/19 17:48:35;;;;;;;12.90;6.97;;;;;;;;;;5029396;28;20755;-44
2023/01/19 17:51:09;;;;;;;14.20;6.97;;;;;;;;;;5029451;28;20037;-43
2023/01/19 17:53:39;;;;;;;10.27;6.75;;;;;;;;;;5029256;28;20029;-44
2023/01/19 17:56:06;;;;;;;11.25;7.15;;;;;;;;;;5027679;28;20057;-44
2023/01/19 17:58:32;;;;;;;10.43;6.55;;;;;;;;;;5010977;28;20432;-44
2023/01/19 18:00:58;;;;;;;9.40;6.25;;;;;;;;;;5010440;28;20095;-43
2023/01/19 18:03:24;;;;;;;9.68;6.32;;;;;;;;;;5016988;28;20032;-44
2023/01/19 18:05:54;;;;;;;10.10;6.18;;;;;;;;;;5029921;28;20038;-44
2023/01/19 18:08:20;;;;;;;11.45;6.68;;;;;;;;;;5029642;28;20417;-43
2023/01/19 18:10:56;;;;;;;11.95;6.93;;;;;;;;;;5029414;28;20029;-43
2023/01/19 18:13:22;;;;;;;10.65;6.95;;;;;;;;;;5026872;28;20025;-42
2023/01/19 18:15:48;;;;;;;10.05;6.03;;;;;;;;;;5045611;28;20587;-43
2023/01/19 18:18:15;;;;;;;15.02;8.43;;;;;;;;;;5048580;28;20670;-44
2023/01/19 18:20:43;;;;;;;15.93;8.82;;;;;;;;;;5048474;28;20033;-45
2023/01/19 18:23:12;;;;;;;17.08;9.98;;;;;;;;;;5041546;28;20036;-44
2023/01/19 18:25:39;;;;;;;14.05;7.93;;;;;;;;;;5046707;28;20739;-44
2023/01/19 18:28:06;;;;;;;17.50;9.43;;;;;;;;;;5045115;28;20443;-44
2023/01/19 18:30:35;;;;;;;22.58;10.68;;;;;;;;;;5045309;28;20095;-43
2023/01/19 18:33:01;;;;;;;21.92;10.82;;;;;;;;;;5044775;28;20087;-44
2023/01/19 18:35:29;;;;;;;20.73;10.25;;;;;;;;;;5046869;28;20021;-44
2023/01/19 18:37:57;;;;;;;19.50;10.85;;;;;;;;;;5045602;28;20032;-43
2023/01/19 18:40:23;;;;;;;19.10;9.65;;;;;;;;;;5045521;28;20043;-45
2023/01/19 18:42:49;;;;;;;17.40;9.32;;;;;;;;;;5046078;28;20028;-44
2023/01/19 18:45:15;;;;;;;24.08;10.80;;;;;;;;;;5038857;28;20029;-44
2023/01/19 18:47:41;;;;;;;42.22;17.27;;;;;;;;;;5039665;28;20450;-44
2023/01/19 18:50:07;;;;;;;45.42;19.67;;;;;;;;;;5045067;28;20028;-44
2023/01/19 18:52:33;;;;;;;38.85;17.30;;;;;;;;;;5041939;28;20021;-43
2023/01/19 18:55:01;;;;;;;33.95;15.15;;;;;;;;;;5043118;28;20117;-43
2023/01/19 18:57:26;;;;;;;29.05;13.63;;;;;;;;;;5045030;28;20045;-44
2023/01/19 18:59:52;;;;;;;25.17;11.90;;;;;;;;;;5044461;28;20094;-43
2023/01/19 19:02:18;;;;;;;22.02;10.73;;;;;;;;;;5046404;28;20043;-43
2023/01/19 19:04:44;;;;;;;18.88;9.95;;;;;;;;;;5045965;28;20120;-43
2023/01/19 19:07:10;;;;;;;19.25;9.95;;;;;;;;;;5040281;28;20035;-45
2023/01/19 19:09:37;;;;;;;14.25;8.45;;;;;;;;;;5045176;28;20037;-43
2023/01/19 19:12:03;;;;;;;15.68;8.93;;;;;;;;;;5043349;28;20028;-44
2023/01/19 19:14:29;;;;;;;14.05;8.68;;;;;;;;;;5043423;28;20485;-43
2023/01/19 19:16:55;;;;;;;13.93;9.00;;;;;;;;;;5042775;28;20392;-45
2023/01/19 19:19:21;;;;;;;16.15;9.80;;;;;;;;;;5044165;28;20065;-44
2023/01/19 19:21:47;;;;;;;13.55;8.65;;;;;;;;;;5043233;28;20032;-43
2023/01/19 19:24:14;;;;;;;14.75;8.48;;;;;;;;;;5040683;28;20060;-44
2023/01/19 19:26:41;;;;;;;14.25;8.40;;;;;;;;;;5043811;28;20028;-44
2023/01/19 19:29:07;;;;;;;11.88;7.53;;;;;;;;;;5042935;28;20021;-43
2023/01/19 19:31:34;;;;;;;15.07;8.25;;;;;;;;;;5042413;28;20064;-44
2023/01/19 19:34:00;;;;;;;11.50;7.82;;;;;;;;;;5043595;28;20512;-44
2023/01/19 19:36:27;;;;;;;11.38;7.85;;;;;;;;;;5042470;28;20063;-44
2023/01/19 19:38:53;;;;;;;13.10;8.35;;;;;;;;;;5043948;28;20028;-44
2023/01/19 19:41:23;;;;;;;14.55;8.05;;;;;;;;;;5046086;28;20033;-43
2023/01/19 19:43:49;;;;;;;16.25;9.23;;;;;;;;;;5046981;28;20679;-44
2023/01/19 19:46:18;;;;;;;14.93;9.15;;;;;;;;;;5045002;28;20060;-44
2023/01/19 19:48:45;;;;;;;12.60;8.50;;;;;;;;;;5045291;28;20071;-44
2023/01/19 19:51:15;;;;;;;16.42;9.23;;;;;;;;;;5044879;28;20711;-43